Time,TemperatureF,DewpointF,PressureIn,WindDirection,WindDirectionDegrees,WindSpeedMPH,WindSpeedGustMPH,Humidity,HourlyPrecipIn,Conditions,Clouds,dailyrainin,SolarRadiationWatts/m^2,SoftwareType,DateUTC
2013-03-23 00:00:00,47.1,38.8,30.04,SW,228,0.0,0.0,73,0.00,,,0.00,0.0,meteohub,2013-03-23 04:00:00,
2013-03-23 00:05:00,46.8,39.2,30.04,SW,228,0.0,0.0,75,0.00,,,0.00,0.0,meteohub,2013-03-23 04:05:00,
2013-03-23 00:10:00,46.6,39.0,30.04,SW,228,0.0,0.0,75,0.00,,,0.00,0.0,meteohub,2013-03-23 04:10:00,
2013-03-23 00:15:00,46.2,39.0,30.04,SW,228,0.0,0.0,76,0.00,,,0.00,0.0,meteohub,2013-03-23 04:15:00,
2013-03-23 00:20:00,46.0,38.8,30.04,SW,228,0.0,0.0,76,0.00,,,0.00,0.0,meteohub,2013-03-23 04:20:00,
2013-03-23 00:25:00,45.7,38.8,30.03,SW,228,0.0,0.0,77,0.00,,,0.00,0.0,meteohub,2013-03-23 04:25:00,
2013-03-23 00:30:00,45.1,38.7,30.03,SW,228,0.0,0.0,78,0.00,,,0.00,0.0,meteohub,2013-03-23 04:30:00,
2013-03-23 00:35:00,44.8,38.7,30.03,SW,228,0.0,0.0,79,0.00,,,0.00,0.0,meteohub,2013-03-23 04:35:00,
2013-03-23 00:40:00,44.8,39.0,30.03,SW,228,0.0,0.0,80,0.00,,,0.00,0.0,meteohub,2013-03-23 04:40:00,
2013-03-23 00:45:00,44.8,39.0,30.03,SW,228,0.0,1.0,80,0.00,,,0.00,0.0,meteohub,2013-03-23 04:45:00,
2013-03-23 00:50:00,44.6,38.8,30.03,SW,228,0.0,1.0,80,0.00,,,0.00,0.0,meteohub,2013-03-23 04:50:00,
2013-03-23 00:55:00,44.1,38.7,30.03,SW,228,0.0,0.0,81,0.00,,,0.00,0.0,meteohub,2013-03-23 04:55:00,
2013-03-23 01:01:00,44.1,38.8,30.03,SW,228,0.0,0.0,82,0.00,,,0.00,0.0,meteohub,2013-03-23 05:01:00,
2013-03-23 01:06:00,43.9,38.5,30.03,SW,228,0.0,0.0,81,0.00,,,0.00,0.0,meteohub,2013-03-23 05:06:00,
2013-03-23 01:11:00,43.3,38.3,30.03,SW,228,0.0,0.0,82,0.00,,,0.00,0.0,meteohub,2013-03-23 05:11:00,
2013-03-23 01:16:00,43.3,38.3,30.03,SW,228,0.0,0.0,82,0.00,,,0.00,0.0,meteohub,2013-03-23 05:16:00,
2013-03-23 01:21:00,43.2,38.3,30.03,SW,228,0.0,0.0,83,0.00,,,0.00,0.0,meteohub,2013-03-23 05:21:00,
2013-03-23 01:26:00,43.0,38.1,30.03,SW,228,0.0,0.0,83,0.00,,,0.00,0.0,meteohub,2013-03-23 05:26:00,
2013-03-23 01:31:00,42.8,38.3,30.03,SW,228,0.0,0.0,84,0.00,,,0.00,0.0,meteohub,2013-03-23 05:31:00,
2013-03-23 01:36:00,43.0,38.5,30.03,SW,228,0.0,0.0,84,0.00,,,0.00,0.0,meteohub,2013-03-23 05:36:00,
2013-03-23 01:41:00,43.2,38.7,30.03,SW,228,0.0,0.0,84,0.00,,,0.00,0.0,meteohub,2013-03-23 05:41:00,
2013-03-23 01:46:00,43.5,39.0,30.03,SW,228,0.0,0.0,84,0.00,,,0.00,0.0,meteohub,2013-03-23 05:46:00,
2013-03-23 01:51:00,43.9,39.4,30.03,SW,228,0.0,0.0,84,0.00,,,0.00,0.0,meteohub,2013-03-23 05:51:00,
2013-03-23 01:56:00,44.1,39.6,30.03,SW,228,0.0,0.0,84,0.00,,,0.00,0.0,meteohub,2013-03-23 05:56:00,
2013-03-23 02:01:00,43.9,39.4,30.03,SW,228,0.0,0.0,84,0.00,,,0.00,0.0,meteohub,2013-03-23 06:01:00,
2013-03-23 02:06:00,43.9,39.4,30.03,SW,228,0.0,0.0,84,0.00,,,0.00,0.0,meteohub,2013-03-23 06:06:00,
2013-03-23 02:12:00,43.9,39.4,30.03,SW,228,0.0,0.0,84,0.00,,,0.00,0.0,meteohub,2013-03-23 06:12:00,
2013-03-23 02:17:00,43.9,39.4,30.03,SW,228,0.0,0.0,84,0.00,,,0.00,0.0,meteohub,2013-03-23 06:17:00,
2013-03-23 02:22:00,43.5,39.4,30.03,SW,228,0.0,0.0,85,0.00,,,0.00,0.0,meteohub,2013-03-23 06:22:00,
2013-03-23 02:27:00,43.5,39.4,30.03,SW,228,0.0,0.0,85,0.00,,,0.00,0.0,meteohub,2013-03-23 06:27:00,
2013-03-23 02:32:00,43.3,39.2,30.03,SW,228,0.0,0.0,85,0.00,,,0.00,0.0,meteohub,2013-03-23 06:32:00,
2013-03-23 02:37:00,43.0,38.8,30.02,SW,228,0.0,0.0,85,0.00,,,0.00,0.0,meteohub,2013-03-23 06:37:00,
2013-03-23 02:42:00,42.6,38.5,30.03,SW,228,0.0,0.0,85,0.00,,,0.00,0.0,meteohub,2013-03-23 06:42:00,
2013-03-23 02:47:00,42.4,38.5,30.02,SW,228,0.0,0.0,86,0.00,,,0.00,0.0,meteohub,2013-03-23 06:47:00,
2013-03-23 02:52:00,42.3,38.3,30.02,SW,228,0.0,0.0,86,0.00,,,0.00,0.0,meteohub,2013-03-23 06:52:00,
2013-03-23 02:57:00,42.1,38.5,30.02,SW,228,0.0,0.0,87,0.00,,,0.00,0.0,meteohub,2013-03-23 06:57:00,
2013-03-23 03:02:00,41.7,38.5,30.02,SW,228,0.0,0.0,88,0.00,,,0.00,0.0,meteohub,2013-03-23 07:02:00,
2013-03-23 03:07:00,42.3,39.0,30.02,SW,228,0.0,1.0,88,0.00,,,0.00,0.0,meteohub,2013-03-23 07:07:00,
2013-03-23 03:12:00,42.1,38.5,30.01,SW,228,0.0,1.0,87,0.00,,,0.00,0.0,meteohub,2013-03-23 07:12:00,
2013-03-23 03:17:00,41.9,38.7,30.01,SW,228,0.0,1.0,88,0.00,,,0.00,0.0,meteohub,2013-03-23 07:17:00,
2013-03-23 03:22:00,41.7,38.5,30.02,SW,228,0.0,0.0,88,0.00,,,0.00,0.0,meteohub,2013-03-23 07:22:00,
2013-03-23 03:27:00,41.9,38.8,30.01,SW,228,0.0,0.0,89,0.00,,,0.00,0.0,meteohub,2013-03-23 07:27:00,
2013-03-23 03:32:00,41.7,38.7,30.01,SW,228,0.0,0.0,89,0.00,,,0.00,0.0,meteohub,2013-03-23 07:32:00,
2013-03-23 03:37:00,41.7,38.7,30.01,SW,228,0.0,0.0,89,0.00,,,0.00,0.0,meteohub,2013-03-23 07:37:00,
2013-03-23 03:42:00,42.1,39.0,30.01,SW,228,0.0,0.0,89,0.00,,,0.00,0.0,meteohub,2013-03-23 07:42:00,
2013-03-23 03:47:00,42.3,39.2,30.01,SW,228,0.0,0.0,89,0.00,,,0.00,0.0,meteohub,2013-03-23 07:47:00,
2013-03-23 03:52:00,42.4,39.4,30.01,SW,228,0.0,0.0,89,0.00,,,0.00,0.0,meteohub,2013-03-23 07:52:00,
2013-03-23 03:57:00,42.6,39.4,30.00,SW,228,0.0,0.0,88,0.00,,,0.00,0.0,meteohub,2013-03-23 07:57:00,
2013-03-23 04:02:00,42.8,39.6,30.00,SW,228,0.0,0.0,88,0.00,,,0.00,0.0,meteohub,2013-03-23 08:02:00,
2013-03-23 04:07:00,43.0,39.9,30.00,SW,228,0.0,0.0,89,0.00,,,0.00,0.0,meteohub,2013-03-23 08:07:00,
2013-03-23 04:12:00,43.2,39.9,29.99,SW,228,0.0,0.0,88,0.00,,,0.00,0.0,meteohub,2013-03-23 08:12:00,
2013-03-23 04:17:00,43.3,40.1,30.00,SW,228,0.0,0.0,88,0.00,,,0.00,0.0,meteohub,2013-03-23 08:17:00,
2013-03-23 04:22:00,43.3,39.7,30.00,SW,228,0.0,0.0,87,0.00,,,0.00,0.0,meteohub,2013-03-23 08:22:00,
2013-03-23 04:27:00,43.5,39.9,30.00,SW,228,0.0,0.0,87,0.00,,,0.00,0.0,meteohub,2013-03-23 08:27:00,
2013-03-23 04:32:00,43.5,39.9,29.99,SW,228,0.0,0.0,87,0.00,,,0.00,0.0,meteohub,2013-03-23 08:32:00,
2013-03-23 04:37:00,43.5,39.9,29.98,SW,228,0.0,0.0,87,0.00,,,0.00,0.0,meteohub,2013-03-23 08:37:00,
2013-03-23 04:43:00,43.5,39.9,29.98,SW,228,0.0,0.0,87,0.00,,,0.00,0.0,meteohub,2013-03-23 08:43:00,
2013-03-23 04:48:00,43.5,39.9,29.98,SW,228,0.0,0.0,87,0.00,,,0.00,0.0,meteohub,2013-03-23 08:48:00,
2013-03-23 04:53:00,43.7,40.1,29.99,SW,228,0.0,0.0,87,0.00,,,0.00,0.0,meteohub,2013-03-23 08:53:00,
2013-03-23 04:58:00,43.9,40.3,29.99,SW,228,0.0,0.0,87,0.00,,,0.00,0.0,meteohub,2013-03-23 08:58:00,
2013-03-23 05:03:00,44.1,40.8,29.99,SW,228,0.0,0.0,88,0.00,,,0.00,0.0,meteohub,2013-03-23 09:03:00,
2013-03-23 05:08:00,44.2,40.6,29.99,SW,228,0.0,0.0,87,0.00,,,0.00,0.0,meteohub,2013-03-23 09:08:00,
2013-03-23 05:13:00,44.4,40.8,29.99,SW,228,0.0,0.0,87,0.00,,,0.00,0.0,meteohub,2013-03-23 09:13:00,
2013-03-23 05:18:00,44.6,41.0,29.99,SW,228,0.0,0.0,87,0.00,,,0.00,0.0,meteohub,2013-03-23 09:18:00,
2013-03-23 05:23:00,44.8,41.2,29.99,SW,228,0.0,0.0,87,0.00,,,0.00,0.0,meteohub,2013-03-23 09:23:00,
2013-03-23 05:28:00,45.0,41.4,29.99,SW,228,0.0,0.0,87,0.00,,,0.00,0.0,meteohub,2013-03-23 09:28:00,
2013-03-23 05:33:00,45.1,41.2,29.99,SW,228,0.0,0.0,86,0.00,,,0.00,0.0,meteohub,2013-03-23 09:33:00,
2013-03-23 05:38:00,45.1,41.2,29.99,SW,228,0.0,0.0,86,0.00,,,0.00,0.0,meteohub,2013-03-23 09:38:00,
2013-03-23 05:43:00,45.3,41.4,29.99,SW,228,0.0,0.0,86,0.00,,,0.00,0.0,meteohub,2013-03-23 09:43:00,
2013-03-23 05:48:00,45.5,41.5,29.99,SW,228,0.0,0.0,86,0.00,,,0.00,0.0,meteohub,2013-03-23 09:48:00,
2013-03-23 05:53:00,45.5,41.5,29.99,SW,228,0.0,0.0,86,0.00,,,0.00,0.0,meteohub,2013-03-23 09:53:00,
2013-03-23 05:58:00,45.7,41.7,29.99,SW,228,0.0,0.0,86,0.00,,,0.00,0.0,meteohub,2013-03-23 09:58:00,
2013-03-23 06:03:00,45.7,41.7,29.98,SW,228,0.0,0.0,86,0.00,,,0.00,0.0,meteohub,2013-03-23 10:03:00,
2013-03-23 06:08:00,45.7,41.7,29.98,SW,228,0.0,0.0,86,0.00,,,0.00,0.0,meteohub,2013-03-23 10:08:00,
2013-03-23 06:13:00,45.9,41.9,29.98,SW,228,0.0,0.0,86,0.00,,,0.00,0.0,meteohub,2013-03-23 10:13:00,
2013-03-23 06:18:00,45.9,41.5,29.98,SW,228,0.0,1.0,85,0.00,,,0.00,0.0,meteohub,2013-03-23 10:18:00,
2013-03-23 06:23:00,46.0,41.5,29.98,SW,228,0.0,1.0,84,0.00,,,0.00,0.0,meteohub,2013-03-23 10:23:00,
2013-03-23 06:28:00,46.0,41.5,29.98,SW,228,0.0,1.0,84,0.00,,,0.00,0.0,meteohub,2013-03-23 10:28:00,
2013-03-23 06:33:00,46.0,41.5,29.98,SW,228,0.0,1.0,84,0.00,,,0.00,0.0,meteohub,2013-03-23 10:33:00,
2013-03-23 06:38:00,46.2,41.7,29.98,SW,228,0.0,1.0,84,0.00,,,0.00,0.0,meteohub,2013-03-23 10:38:00,
2013-03-23 06:43:00,46.2,41.7,29.99,SW,228,0.0,1.0,84,0.00,,,0.00,0.0,meteohub,2013-03-23 10:43:00,
2013-03-23 06:48:00,46.4,41.9,29.99,SW,228,0.0,1.0,84,0.00,,,0.00,0.0,meteohub,2013-03-23 10:48:00,
2013-03-23 06:53:00,46.6,42.1,29.99,SW,228,0.0,0.0,84,0.00,,,0.00,0.0,meteohub,2013-03-23 10:53:00,
2013-03-23 06:58:00,46.8,41.9,29.99,SW,228,0.0,0.0,83,0.00,,,0.00,0.0,meteohub,2013-03-23 10:58:00,
2013-03-23 07:03:00,46.8,41.9,29.99,SW,228,0.0,0.0,83,0.00,,,0.00,0.0,meteohub,2013-03-23 11:03:00,
2013-03-23 07:08:00,46.8,41.9,29.99,SW,228,1.0,1.0,83,0.00,,,0.00,0.0,meteohub,2013-03-23 11:08:00,
2013-03-23 07:13:00,46.8,42.3,29.99,WSW,242,0.0,2.0,84,0.00,,,0.00,0.0,meteohub,2013-03-23 11:13:00,
2013-03-23 07:18:00,46.8,42.3,29.98,WSW,242,0.0,2.0,84,0.00,,,0.00,0.0,meteohub,2013-03-23 11:18:00,
2013-03-23 07:24:00,46.8,42.3,29.99,WSW,242,0.0,2.0,84,0.00,,,0.00,0.0,meteohub,2013-03-23 11:24:00,
2013-03-23 07:29:00,46.8,42.3,29.99,WSW,242,0.0,1.0,84,0.00,,,0.00,7.0,meteohub,2013-03-23 11:29:00,
2013-03-23 07:34:00,46.8,42.4,29.99,WSW,242,0.0,1.0,85,0.00,,,0.00,9.0,meteohub,2013-03-23 11:34:00,
2013-03-23 07:39:00,46.8,42.3,29.99,NW,322,0.0,1.0,84,0.00,,,0.00,11.0,meteohub,2013-03-23 11:39:00,
2013-03-23 07:44:00,46.6,42.3,29.99,North,355,0.0,2.0,85,0.00,,,0.00,18.0,meteohub,2013-03-23 11:44:00,
2013-03-23 07:49:00,46.6,42.3,29.99,North,355,0.0,2.0,85,0.00,,,0.00,25.0,meteohub,2013-03-23 11:49:00,
2013-03-23 07:54:00,46.4,42.1,29.99,North,5,0.0,2.0,85,0.00,,,0.00,42.0,meteohub,2013-03-23 11:54:00,
2013-03-23 07:59:00,46.4,42.4,29.99,North,5,0.0,2.0,86,0.00,,,0.00,40.0,meteohub,2013-03-23 11:59:00,
2013-03-23 08:04:00,46.6,42.6,29.99,WSW,252,0.0,2.0,86,0.00,,,0.00,56.0,meteohub,2013-03-23 12:04:00,
2013-03-23 08:09:00,46.8,42.8,29.99,East,86,0.0,3.0,86,0.00,,,0.00,63.0,meteohub,2013-03-23 12:09:00,
2013-03-23 08:14:00,47.1,43.2,30.00,East,81,0.0,3.0,86,0.00,,,0.00,83.0,meteohub,2013-03-23 12:14:00,
2013-03-23 08:19:00,47.7,43.3,30.00,East,81,0.0,3.0,85,0.00,,,0.00,95.0,meteohub,2013-03-23 12:19:00,
2013-03-23 08:24:00,48.0,43.3,29.99,ENE,72,0.0,2.0,84,0.00,,,0.00,91.0,meteohub,2013-03-23 12:24:00,
2013-03-23 08:29:00,48.6,43.7,29.99,NE,56,0.0,2.0,83,0.00,,,0.00,130.0,meteohub,2013-03-23 12:29:00,
2013-03-23 08:34:00,49.3,44.1,29.99,NE,56,0.0,2.0,82,0.00,,,0.00,90.0,meteohub,2013-03-23 12:34:00,
2013-03-23 08:39:00,49.6,43.3,29.99,NE,55,0.0,2.0,79,0.00,,,0.00,95.0,meteohub,2013-03-23 12:39:00,
2013-03-23 08:44:00,49.8,43.0,29.99,NE,51,0.0,2.0,77,0.00,,,0.00,90.0,meteohub,2013-03-23 12:44:00,
2013-03-23 08:49:00,50.2,43.0,29.99,NE,48,0.0,3.0,76,0.00,,,0.00,97.0,meteohub,2013-03-23 12:49:00,
2013-03-23 08:54:00,50.4,42.4,29.99,East,84,2.0,3.0,74,0.00,,,0.00,86.0,meteohub,2013-03-23 12:54:00,
2013-03-23 08:59:00,50.4,42.1,29.99,East,83,0.0,3.0,73,0.00,,,0.00,70.0,meteohub,2013-03-23 12:59:00,
2013-03-23 09:04:00,50.5,41.9,30.00,NNE,24,1.0,2.0,72,0.00,,,0.00,74.0,meteohub,2013-03-23 13:04:00,
2013-03-23 09:09:00,50.7,41.7,29.99,ENE,75,2.0,3.0,71,0.00,,,0.00,49.0,meteohub,2013-03-23 13:09:00,
2013-03-23 09:14:00,50.7,41.0,29.99,East,101,1.0,3.0,69,0.00,,,0.00,46.0,meteohub,2013-03-23 13:14:00,
2013-03-23 09:19:00,50.7,41.7,29.99,East,101,2.0,3.0,71,0.00,,,0.00,70.0,meteohub,2013-03-23 13:19:00,
2013-03-23 09:24:00,51.1,42.1,29.99,NW,307,2.0,3.0,71,0.00,,,0.00,86.0,meteohub,2013-03-23 13:24:00,
2013-03-23 09:29:00,51.1,42.1,29.99,NNW,328,1.0,3.0,71,0.00,,,0.00,67.0,meteohub,2013-03-23 13:29:00,
2013-03-23 09:34:00,51.1,42.1,29.99,East,80,0.0,3.0,71,0.00,,,0.00,44.0,meteohub,2013-03-23 13:34:00,
2013-03-23 09:39:00,50.9,42.3,29.99,ENE,70,1.0,4.0,72,0.00,,,0.00,46.0,meteohub,2013-03-23 13:39:00,
2013-03-23 09:45:00,51.1,42.1,29.99,NE,55,0.0,4.0,71,0.00,,,0.00,77.0,meteohub,2013-03-23 13:45:00,
2013-03-23 09:50:00,51.3,41.4,30.00,NE,39,0.0,4.0,69,0.00,,,0.00,90.0,meteohub,2013-03-23 13:50:00,
2013-03-23 09:55:00,51.4,41.2,30.00,North,0,2.0,4.0,68,0.00,,,0.00,100.0,meteohub,2013-03-23 13:55:00,
2013-03-23 10:00:00,51.4,40.8,30.00,ENE,74,2.0,4.0,67,0.00,,,0.00,79.0,meteohub,2013-03-23 14:00:00,
2013-03-23 10:05:00,51.3,40.3,30.00,SSE,153,0.0,4.0,66,0.00,,,0.00,35.0,meteohub,2013-03-23 14:05:00,
2013-03-23 10:10:00,51.1,40.5,30.00,NE,52,0.0,3.0,67,0.00,,,0.00,42.0,meteohub,2013-03-23 14:10:00,
2013-03-23 10:15:00,51.1,40.5,30.00,ENE,67,0.0,4.0,67,0.00,,,0.00,49.0,meteohub,2013-03-23 14:15:00,
2013-03-23 10:20:00,51.1,40.5,30.00,ENE,65,0.0,4.0,67,0.00,,,0.00,40.0,meteohub,2013-03-23 14:20:00,
2013-03-23 10:25:00,51.1,39.7,30.01,NE,42,0.0,4.0,65,0.00,,,0.00,26.0,meteohub,2013-03-23 14:25:00,
2013-03-23 10:30:00,50.9,39.9,30.00,NE,41,0.0,3.0,66,0.00,,,0.00,39.0,meteohub,2013-03-23 14:30:00,
2013-03-23 10:35:00,50.9,40.3,30.00,NNE,22,1.0,2.0,67,0.00,,,0.00,32.0,meteohub,2013-03-23 14:35:00,
2013-03-23 10:40:00,50.7,40.1,29.99,NNE,28,1.0,3.0,67,0.00,,,0.00,42.0,meteohub,2013-03-23 14:40:00,
2013-03-23 10:45:00,50.5,39.6,30.00,NNW,334,1.0,5.0,66,0.00,,,0.00,28.0,meteohub,2013-03-23 14:45:00,
2013-03-23 10:50:00,50.4,39.4,30.01,NW,322,2.0,5.0,66,0.00,,,0.00,21.0,meteohub,2013-03-23 14:50:00,
2013-03-23 10:55:00,50.4,39.7,30.01,NNW,333,1.0,5.0,67,0.00,,,0.00,21.0,meteohub,2013-03-23 14:55:00,
2013-03-23 11:00:00,50.2,39.6,30.01,NW,319,0.0,5.0,67,0.00,,,0.00,19.0,meteohub,2013-03-23 15:00:00,
2013-03-23 11:05:00,50.2,39.2,30.01,NW,304,0.0,9.0,66,0.00,,,0.00,35.0,meteohub,2013-03-23 15:05:00,
2013-03-23 11:10:00,50.2,38.5,30.02,WNW,292,1.0,9.0,64,0.00,,,0.00,32.0,meteohub,2013-03-23 15:10:00,
2013-03-23 11:15:00,50.0,38.3,30.01,WNW,300,2.0,9.0,64,0.00,,,0.00,37.0,meteohub,2013-03-23 15:15:00,
2013-03-23 11:20:00,49.8,38.1,30.01,NW,307,2.0,6.0,64,0.00,,,0.00,33.0,meteohub,2013-03-23 15:20:00,
2013-03-23 11:25:00,49.6,37.6,30.01,NNE,15,2.0,6.0,63,0.00,,,0.00,28.0,meteohub,2013-03-23 15:25:00,
2013-03-23 11:30:00,49.5,38.1,30.02,NW,317,2.0,6.0,65,0.00,,,0.00,25.0,meteohub,2013-03-23 15:30:00,
2013-03-23 11:35:00,48.9,38.8,30.02,NNW,336,1.0,6.0,68,0.00,,,0.00,19.0,meteohub,2013-03-23 15:35:00,
2013-03-23 11:40:00,48.4,39.7,30.02,NW,319,3.0,7.0,72,0.00,,,0.00,18.0,meteohub,2013-03-23 15:40:00,
2013-03-23 11:45:00,47.3,39.7,30.03,NW,305,4.0,7.0,75,0.00,,,0.00,16.0,meteohub,2013-03-23 15:45:00,
2013-03-23 11:50:00,46.6,40.8,30.04,North,355,1.0,7.0,80,0.01,,,0.01,19.0,meteohub,2013-03-23 15:50:00,
2013-03-23 11:56:00,45.9,41.0,30.05,NW,316,3.0,6.0,83,0.02,,,0.02,21.0,meteohub,2013-03-23 15:56:00,
2013-03-23 12:00:00,45.3,41.0,30.04,NE,42,2.0,6.0,85,0.05,,,0.05,47.0,meteohub,2013-03-23 16:00:00,
2013-03-23 12:06:00,45.0,41.5,30.03,NE,50,0.0,4.0,88,0.08,,,0.08,60.0,meteohub,2013-03-23 16:06:00,
2013-03-23 12:11:00,45.0,42.3,30.02,ENE,59,2.0,4.0,90,0.08,,,0.08,58.0,meteohub,2013-03-23 16:11:00,
2013-03-23 12:16:00,45.0,42.3,30.03,WNW,295,1.0,4.0,90,0.09,,,0.09,26.0,meteohub,2013-03-23 16:16:00,
2013-03-23 12:21:00,45.0,42.3,30.03,NNE,20,0.0,4.0,90,0.10,,,0.10,26.0,meteohub,2013-03-23 16:21:00,
2013-03-23 12:26:00,44.8,42.3,30.02,ENE,61,3.0,4.0,91,0.11,,,0.11,33.0,meteohub,2013-03-23 16:26:00,
2013-03-23 12:31:00,44.8,42.6,30.01,NE,55,0.0,4.0,92,0.13,,,0.13,76.0,meteohub,2013-03-23 16:31:00,
2013-03-23 12:36:00,44.6,42.4,30.01,North,5,0.0,4.0,92,0.16,,,0.16,56.0,meteohub,2013-03-23 16:36:00,
2013-03-23 12:41:00,44.8,42.8,30.02,NW,315,2.0,4.0,93,0.16,,,0.16,62.0,meteohub,2013-03-23 16:41:00,
2013-03-23 12:46:00,44.8,42.8,30.01,ENE,72,0.0,4.0,93,0.16,,,0.17,37.0,meteohub,2013-03-23 16:46:00,
2013-03-23 12:51:00,44.8,42.8,30.01,NE,54,0.0,3.0,93,0.16,,,0.18,47.0,meteohub,2013-03-23 16:51:00,
2013-03-23 12:56:00,44.6,42.6,30.02,NE,53,0.0,3.0,93,0.15,,,0.19,40.0,meteohub,2013-03-23 16:56:00,
2013-03-23 13:02:00,44.8,42.8,30.03,NE,53,1.0,3.0,93,0.15,,,0.21,39.0,meteohub,2013-03-23 17:02:00,
2013-03-23 13:07:00,45.0,43.0,30.03,NE,51,0.0,2.0,93,0.15,,,0.22,51.0,meteohub,2013-03-23 17:07:00,
2013-03-23 13:12:00,45.0,43.0,30.03,NE,51,0.0,2.0,93,0.15,,,0.24,39.0,meteohub,2013-03-23 17:12:00,
2013-03-23 13:17:00,45.0,43.3,30.02,NE,51,0.0,2.0,94,0.14,,,0.24,65.0,meteohub,2013-03-23 17:17:00,
2013-03-23 13:22:00,45.1,43.5,30.03,NE,51,0.0,1.0,94,0.15,,,0.25,63.0,meteohub,2013-03-23 17:22:00,
2013-03-23 13:27:00,45.1,43.5,30.03,North,355,0.0,1.0,94,0.15,,,0.27,47.0,meteohub,2013-03-23 17:27:00,
2013-03-23 13:32:00,45.1,43.5,30.03,North,355,0.0,3.0,94,0.14,,,0.28,49.0,meteohub,2013-03-23 17:32:00,
2013-03-23 13:37:00,45.5,43.9,30.03,North,355,0.0,3.0,94,0.12,,,0.28,46.0,meteohub,2013-03-23 17:37:00,
2013-03-23 13:42:00,45.5,43.9,30.03,WNW,303,0.0,3.0,94,0.11,,,0.28,40.0,meteohub,2013-03-23 17:42:00,
2013-03-23 13:47:00,45.5,43.9,30.03,WNW,303,0.0,3.0,94,0.11,,,0.28,33.0,meteohub,2013-03-23 17:47:00,
2013-03-23 13:52:00,45.5,43.9,30.02,WNW,303,0.0,3.0,94,0.11,,,0.29,67.0,meteohub,2013-03-23 17:52:00,
2013-03-23 13:57:00,45.7,44.1,30.01,NW,323,1.0,2.0,94,0.10,,,0.30,88.0,meteohub,2013-03-23 17:57:00,
2013-03-23 14:02:00,46.0,44.6,29.99,NE,42,1.0,1.0,95,0.10,,,0.31,139.0,meteohub,2013-03-23 18:02:00,
2013-03-23 14:07:00,46.2,44.8,29.99,NE,51,0.0,2.0,95,0.10,,,0.33,141.0,meteohub,2013-03-23 18:07:00,
2013-03-23 14:12:00,46.6,45.1,29.97,NE,51,0.0,4.0,95,0.10,,,0.34,121.0,meteohub,2013-03-23 18:12:00,
2013-03-23 14:17:00,46.6,45.1,29.97,East,95,0.0,4.0,95,0.10,,,0.35,95.0,meteohub,2013-03-23 18:17:00,
2013-03-23 14:22:00,46.6,45.1,29.96,East,86,0.0,4.0,95,0.09,,,0.35,83.0,meteohub,2013-03-23 18:22:00,
2013-03-23 14:27:00,46.8,45.3,29.96,East,86,0.0,3.0,95,0.08,,,0.35,53.0,meteohub,2013-03-23 18:27:00,
2013-03-23 14:32:00,46.8,45.3,29.95,East,88,1.0,3.0,95,0.07,,,0.35,65.0,meteohub,2013-03-23 18:32:00,
2013-03-23 14:37:00,47.1,45.7,29.94,ESE,117,1.0,3.0,95,0.07,,,0.35,156.0,meteohub,2013-03-23 18:37:00,
2013-03-23 14:42:00,47.5,46.4,29.93,ESE,104,2.0,3.0,96,0.07,,,0.35,214.0,meteohub,2013-03-23 18:42:00,
2013-03-23 14:47:00,47.7,46.6,29.92,ESE,104,4.0,4.0,96,0.07,,,0.35,220.0,meteohub,2013-03-23 18:47:00,
2013-03-23 14:52:00,48.2,47.1,29.91,East,84,3.0,7.0,96,0.06,,,0.35,239.0,meteohub,2013-03-23 18:52:00,
2013-03-23 14:57:00,48.9,47.8,29.91,ESE,105,1.0,7.0,96,0.05,,,0.35,329.0,meteohub,2013-03-23 18:57:00,
2013-03-23 15:02:00,50.4,49.3,29.89,ENE,67,1.0,7.0,96,0.03,,,0.35,380.0,meteohub,2013-03-23 19:02:00,
2013-03-23 15:08:00,50.5,49.5,29.89,ESE,115,3.0,5.0,96,0.01,,,0.35,283.0,meteohub,2013-03-23 19:08:00,
2013-03-23 15:13:00,50.7,49.6,29.89,SE,136,1.0,6.0,96,0.01,,,0.35,274.0,meteohub,2013-03-23 19:13:00,
2013-03-23 15:18:00,51.3,50.2,29.89,ESE,104,1.0,7.0,96,0.00,,,0.35,301.0,meteohub,2013-03-23 19:18:00,
2013-03-23 15:23:00,51.6,50.5,29.89,ESE,111,1.0,7.0,96,0.00,,,0.35,334.0,meteohub,2013-03-23 19:23:00,
2013-03-23 15:28:00,52.9,51.8,29.89,ESE,123,1.0,7.0,96,0.00,,,0.35,306.0,meteohub,2013-03-23 19:28:00,
2013-03-23 15:33:00,52.9,51.4,29.89,ESE,113,2.0,5.0,95,0.00,,,0.35,313.0,meteohub,2013-03-23 19:33:00,
2013-03-23 15:38:00,53.2,51.6,29.89,ENE,70,0.0,6.0,94,0.00,,,0.35,334.0,meteohub,2013-03-23 19:38:00,
2013-03-23 15:43:00,54.1,52.5,29.89,ESE,113,3.0,6.0,94,0.00,,,0.35,403.0,meteohub,2013-03-23 19:43:00,
2013-03-23 15:48:00,55.4,53.8,29.88,SE,130,2.0,6.0,94,0.00,,,0.35,283.0,meteohub,2013-03-23 19:48:00,
2013-03-23 15:53:00,55.6,53.2,29.88,ESE,123,1.0,5.0,92,0.00,,,0.35,229.0,meteohub,2013-03-23 19:53:00,
2013-03-23 15:58:00,55.2,52.7,29.88,East,101,1.0,5.0,91,0.00,,,0.35,185.0,meteohub,2013-03-23 19:58:00,
2013-03-23 16:03:00,55.0,52.5,29.88,ESE,114,1.0,5.0,91,0.00,,,0.35,181.0,meteohub,2013-03-23 20:03:00,
2013-03-23 16:08:00,55.2,52.9,29.88,East,84,1.0,5.0,92,0.00,,,0.35,181.0,meteohub,2013-03-23 20:08:00,
2013-03-23 16:13:00,55.6,53.1,29.88,NNW,327,0.0,5.0,91,0.00,,,0.35,176.0,meteohub,2013-03-23 20:13:00,
2013-03-23 16:18:00,55.8,53.2,29.88,ENE,72,1.0,5.0,91,0.00,,,0.35,206.0,meteohub,2013-03-23 20:18:00,
2013-03-23 16:23:00,55.8,53.2,29.88,East,93,0.0,3.0,91,0.00,,,0.35,167.0,meteohub,2013-03-23 20:23:00,
2013-03-23 16:28:00,55.4,52.9,29.87,NE,51,0.0,6.0,91,0.00,,,0.35,118.0,meteohub,2013-03-23 20:28:00,
2013-03-23 16:33:00,54.9,52.0,29.87,ENE,58,1.0,6.0,90,0.00,,,0.35,90.0,meteohub,2013-03-23 20:33:00,
2013-03-23 16:38:00,54.3,51.8,29.88,South,169,1.0,6.0,91,0.00,,,0.35,90.0,meteohub,2013-03-23 20:38:00,
2013-03-23 16:43:00,54.1,51.6,29.87,NNE,19,1.0,5.0,91,0.00,,,0.35,88.0,meteohub,2013-03-23 20:43:00,
2013-03-23 16:48:00,53.8,51.3,29.87,SE,128,1.0,6.0,91,0.00,,,0.35,111.0,meteohub,2013-03-23 20:48:00,
2013-03-23 16:53:00,53.6,51.1,29.87,NW,318,2.0,7.0,91,0.00,,,0.35,56.0,meteohub,2013-03-23 20:53:00,
2013-03-23 16:58:00,53.4,51.1,29.87,NW,321,3.0,7.0,92,0.00,,,0.35,79.0,meteohub,2013-03-23 20:58:00,
2013-03-23 17:03:00,52.5,50.0,29.87,WNW,294,3.0,5.0,91,0.00,,,0.35,93.0,meteohub,2013-03-23 21:03:00,
2013-03-23 17:08:00,52.2,49.8,29.87,North,9,2.0,8.0,92,0.00,,,0.35,77.0,meteohub,2013-03-23 21:08:00,
2013-03-23 17:13:00,52.2,49.8,29.87,WNW,299,0.0,8.0,92,0.00,,,0.35,62.0,meteohub,2013-03-23 21:13:00,
2013-03-23 17:18:00,52.2,49.8,29.87,NNE,13,1.0,6.0,92,0.00,,,0.35,58.0,meteohub,2013-03-23 21:18:00,
2013-03-23 17:23:00,52.0,49.6,29.87,NW,324,1.0,4.0,92,0.00,,,0.35,54.0,meteohub,2013-03-23 21:23:00,
2013-03-23 17:28:00,52.0,50.0,29.87,NNW,347,0.0,4.0,93,0.00,,,0.35,58.0,meteohub,2013-03-23 21:28:00,
2013-03-23 17:33:00,52.0,50.0,29.87,North,11,0.0,4.0,93,0.00,,,0.35,65.0,meteohub,2013-03-23 21:33:00,
2013-03-23 17:38:00,51.8,49.8,29.87,ENE,60,3.0,5.0,93,0.00,,,0.35,62.0,meteohub,2013-03-23 21:38:00,
2013-03-23 17:43:00,51.6,49.6,29.87,WNW,286,0.0,5.0,93,0.00,,,0.35,47.0,meteohub,2013-03-23 21:43:00,
2013-03-23 17:49:00,51.3,49.3,29.87,NE,46,1.0,5.0,93,0.00,,,0.35,47.0,meteohub,2013-03-23 21:49:00,
2013-03-23 17:54:00,51.1,49.1,29.87,ENE,63,1.0,5.0,93,0.00,,,0.35,35.0,meteohub,2013-03-23 21:54:00,
2013-03-23 17:59:00,50.9,48.9,29.88,NNE,28,4.0,5.0,93,0.00,,,0.35,42.0,meteohub,2013-03-23 21:59:00,
2013-03-23 18:04:00,50.7,48.7,29.89,ESE,111,2.0,5.0,93,0.00,,,0.35,21.0,meteohub,2013-03-23 22:04:00,
2013-03-23 18:09:00,50.4,48.4,29.89,NE,51,1.0,5.0,93,0.00,,,0.35,19.0,meteohub,2013-03-23 22:09:00,
2013-03-23 18:14:00,50.4,48.4,29.90,NNE,25,2.0,5.0,93,0.00,,,0.35,19.0,meteohub,2013-03-23 22:14:00,
2013-03-23 18:19:00,50.2,48.2,29.89,East,81,1.0,5.0,93,0.00,,,0.35,23.0,meteohub,2013-03-23 22:19:00,
2013-03-23 18:24:00,50.2,48.2,29.89,NE,55,2.0,5.0,93,0.00,,,0.35,14.0,meteohub,2013-03-23 22:24:00,
2013-03-23 18:29:00,50.0,48.4,29.89,North,0,0.0,5.0,94,0.00,,,0.35,11.0,meteohub,2013-03-23 22:29:00,
2013-03-23 18:34:00,49.8,48.2,29.90,ENE,68,0.0,3.0,94,0.00,,,0.35,9.0,meteohub,2013-03-23 22:34:00,
2013-03-23 18:39:00,49.6,48.0,29.90,SE,136,1.0,3.0,94,0.00,,,0.35,7.0,meteohub,2013-03-23 22:39:00,
2013-03-23 18:44:00,49.5,47.8,29.91,North,355,1.0,5.0,94,0.00,,,0.35,9.0,meteohub,2013-03-23 22:44:00,
2013-03-23 18:49:00,49.5,47.8,29.91,ENE,66,0.0,5.0,94,0.00,,,0.35,5.0,meteohub,2013-03-23 22:49:00,
2013-03-23 18:54:00,49.3,47.7,29.91,NNW,331,2.0,5.0,94,0.00,,,0.35,0.0,meteohub,2013-03-23 22:54:00,
2013-03-23 18:59:00,48.9,47.3,29.91,NW,312,1.0,4.0,94,0.00,,,0.35,0.0,meteohub,2013-03-23 22:59:00,
2013-03-23 19:04:00,48.7,47.1,29.91,NE,46,1.0,5.0,94,0.00,,,0.35,0.0,meteohub,2013-03-23 23:04:00,
2013-03-23 19:09:00,48.6,46.9,29.92,NNE,25,1.0,5.0,94,0.00,,,0.35,0.0,meteohub,2013-03-23 23:09:00,
2013-03-23 19:14:00,48.4,46.8,29.92,East,84,1.0,5.0,94,0.00,,,0.35,0.0,meteohub,2013-03-23 23:14:00,
2013-03-23 19:19:00,48.4,46.9,29.93,NE,54,0.0,5.0,95,0.00,,,0.35,0.0,meteohub,2013-03-23 23:19:00,
2013-03-23 19:24:00,48.4,46.9,29.92,ENE,57,2.0,5.0,95,0.00,,,0.35,0.0,meteohub,2013-03-23 23:24:00,
2013-03-23 19:29:00,48.2,46.8,29.92,NE,42,0.0,4.0,95,0.00,,,0.35,0.0,meteohub,2013-03-23 23:29:00,
2013-03-23 19:34:00,48.2,46.8,29.93,ENE,58,2.0,4.0,95,0.00,,,0.35,0.0,meteohub,2013-03-23 23:34:00,
2013-03-23 19:39:00,48.4,46.9,29.93,East,94,0.0,4.0,95,0.00,,,0.35,0.0,meteohub,2013-03-23 23:39:00,
2013-03-23 19:44:00,48.4,46.9,29.93,East,94,1.0,3.0,95,0.00,,,0.35,0.0,meteohub,2013-03-23 23:44:00,
2013-03-23 19:49:00,48.4,46.9,29.94,ESE,121,0.0,2.0,95,0.00,,,0.35,0.0,meteohub,2013-03-23 23:49:00,
2013-03-23 19:54:00,48.4,46.9,29.94,East,92,0.0,3.0,95,0.00,,,0.35,0.0,meteohub,2013-03-23 23:54:00,
2013-03-23 19:59:00,48.6,47.1,29.94,ESE,102,0.0,3.0,95,0.00,,,0.35,0.0,meteohub,2013-03-23 23:59:00,
2013-03-23 20:04:00,48.6,47.1,29.94,ENE,58,0.0,3.0,95,0.00,,,0.35,0.0,meteohub,2013-03-24 00:04:00,
2013-03-23 20:09:00,48.7,47.3,29.94,ENE,58,2.0,3.0,95,0.00,,,0.35,0.0,meteohub,2013-03-24 00:09:00,
2013-03-23 20:14:00,48.7,47.3,29.94,East,91,0.0,2.0,95,0.00,,,0.35,0.0,meteohub,2013-03-24 00:14:00,
2013-03-23 20:19:00,48.7,47.3,29.94,East,91,0.0,3.0,95,0.00,,,0.35,0.0,meteohub,2013-03-24 00:19:00,
2013-03-23 20:24:00,48.7,47.3,29.94,NE,46,1.0,3.0,95,0.00,,,0.35,0.0,meteohub,2013-03-24 00:24:00,
2013-03-23 20:29:00,48.7,47.3,29.93,NE,46,0.0,3.0,95,0.00,,,0.35,0.0,meteohub,2013-03-24 00:29:00,
2013-03-23 20:34:00,48.7,47.3,29.93,NE,46,1.0,2.0,95,0.00,,,0.35,0.0,meteohub,2013-03-24 00:34:00,
2013-03-23 20:39:00,48.7,47.3,29.93,NE,46,0.0,2.0,95,0.00,,,0.35,0.0,meteohub,2013-03-24 00:39:00,
2013-03-23 20:44:00,48.7,47.3,29.93,NE,46,0.0,2.0,95,0.00,,,0.35,0.0,meteohub,2013-03-24 00:44:00,
2013-03-23 20:49:00,48.7,47.3,29.93,NE,46,0.0,2.0,95,0.00,,,0.35,0.0,meteohub,2013-03-24 00:49:00,
2013-03-23 20:54:00,48.7,47.3,29.93,NE,46,0.0,1.0,95,0.00,,,0.35,0.0,meteohub,2013-03-24 00:54:00,
2013-03-23 20:59:00,48.6,47.1,29.93,NE,46,0.0,1.0,95,0.00,,,0.35,0.0,meteohub,2013-03-24 00:59:00,
2013-03-23 21:04:00,48.6,47.1,29.93,NE,46,0.0,1.0,95,0.00,,,0.35,0.0,meteohub,2013-03-24 01:04:00,
2013-03-23 21:09:00,48.6,47.1,29.92,NE,46,0.0,1.0,95,0.00,,,0.35,0.0,meteohub,2013-03-24 01:09:00,
2013-03-23 21:14:00,48.6,47.1,29.93,NE,38,1.0,1.0,95,0.00,,,0.35,0.0,meteohub,2013-03-24 01:14:00,
2013-03-23 21:19:00,48.4,46.9,29.93,NNE,19,1.0,1.0,95,0.00,,,0.35,0.0,meteohub,2013-03-24 01:19:00,
2013-03-23 21:25:00,48.4,46.9,29.93,NNE,19,1.0,4.0,95,0.00,,,0.35,0.0,meteohub,2013-03-24 01:25:00,
2013-03-23 21:30:00,48.4,46.9,29.93,NNE,19,0.0,4.0,95,0.00,,,0.35,0.0,meteohub,2013-03-24 01:30:00,
2013-03-23 21:35:00,48.4,46.9,29.93,NNE,23,2.0,4.0,95,0.00,,,0.35,0.0,meteohub,2013-03-24 01:35:00,
2013-03-23 21:40:00,48.6,47.1,29.92,NNE,19,0.0,2.0,95,0.00,,,0.35,0.0,meteohub,2013-03-24 01:40:00,
2013-03-23 21:45:00,48.6,47.1,29.92,NE,46,0.0,3.0,95,0.00,,,0.35,0.0,meteohub,2013-03-24 01:45:00,
2013-03-23 21:50:00,48.4,46.9,29.92,NE,36,0.0,3.0,95,0.00,,,0.35,0.0,meteohub,2013-03-24 01:50:00,
2013-03-23 21:55:00,48.4,46.9,29.91,NE,39,0.0,3.0,95,0.00,,,0.35,0.0,meteohub,2013-03-24 01:55:00,
2013-03-23 22:00:00,48.4,46.9,29.92,NE,43,1.0,3.0,95,0.00,,,0.35,0.0,meteohub,2013-03-24 02:00:00,
2013-03-23 22:05:00,48.4,46.9,29.92,NE,43,0.0,4.0,95,0.00,,,0.35,0.0,meteohub,2013-03-24 02:05:00,
2013-03-23 22:10:00,48.2,46.8,29.93,NE,49,2.0,4.0,95,0.00,,,0.35,0.0,meteohub,2013-03-24 02:10:00,
2013-03-23 22:15:00,48.2,46.8,29.92,NE,53,0.0,3.0,95,0.00,,,0.35,0.0,meteohub,2013-03-24 02:15:00,
2013-03-23 22:20:00,48.4,46.9,29.92,ENE,76,1.0,2.0,95,0.00,,,0.35,0.0,meteohub,2013-03-24 02:20:00,
2013-03-23 22:25:00,48.4,46.9,29.92,ENE,65,1.0,2.0,95,0.00,,,0.35,0.0,meteohub,2013-03-24 02:25:00,
2013-03-23 22:30:00,48.4,46.9,29.92,ENE,65,2.0,3.0,95,0.00,,,0.35,0.0,meteohub,2013-03-24 02:30:00,
2013-03-23 22:35:00,48.6,47.1,29.92,ENE,65,0.0,3.0,95,0.00,,,0.35,0.0,meteohub,2013-03-24 02:35:00,
2013-03-23 22:40:00,48.6,47.1,29.91,ENE,65,0.0,3.0,95,0.00,,,0.35,0.0,meteohub,2013-03-24 02:40:00,
2013-03-23 22:45:00,48.6,47.1,29.91,NE,44,0.0,2.0,95,0.00,,,0.35,0.0,meteohub,2013-03-24 02:45:00,
2013-03-23 22:50:00,48.6,47.1,29.91,East,90,0.0,2.0,95,0.00,,,0.35,0.0,meteohub,2013-03-24 02:50:00,
2013-03-23 22:55:00,48.7,47.3,29.91,NE,53,0.0,3.0,95,0.00,,,0.35,0.0,meteohub,2013-03-24 02:55:00,
2013-03-23 23:00:00,48.7,47.3,29.90,East,83,0.0,3.0,95,0.00,,,0.35,0.0,meteohub,2013-03-24 03:00:00,
2013-03-23 23:05:00,48.7,47.3,29.91,East,83,0.0,3.0,95,0.00,,,0.35,0.0,meteohub,2013-03-24 03:05:00,
2013-03-23 23:10:00,48.7,47.1,29.91,North,355,0.0,3.0,94,0.00,,,0.35,0.0,meteohub,2013-03-24 03:10:00,
2013-03-23 23:15:00,48.7,47.1,29.90,North,355,0.0,2.0,94,0.00,,,0.35,0.0,meteohub,2013-03-24 03:15:00,
2013-03-23 23:20:00,48.7,47.1,29.90,NE,51,0.0,2.0,94,0.00,,,0.35,0.0,meteohub,2013-03-24 03:20:00,
2013-03-23 23:25:00,48.9,47.3,29.90,NE,42,0.0,3.0,94,0.00,,,0.35,0.0,meteohub,2013-03-24 03:25:00,
2013-03-23 23:30:00,48.7,47.1,29.88,NE,49,0.0,3.0,94,0.00,,,0.35,0.0,meteohub,2013-03-24 03:30:00,
2013-03-23 23:35:00,48.7,47.1,29.88,NE,44,0.0,3.0,94,0.00,,,0.35,0.0,meteohub,2013-03-24 03:35:00,
2013-03-23 23:40:00,48.7,47.1,29.88,NE,44,0.0,3.0,94,0.00,,,0.35,0.0,meteohub,2013-03-24 03:40:00,
2013-03-23 23:45:00,48.7,47.1,29.88,NE,44,2.0,2.0,94,0.00,,,0.35,0.0,meteohub,2013-03-24 03:45:00,
2013-03-23 23:50:00,48.9,47.3,29.87,NE,44,0.0,2.0,94,0.00,,,0.35,0.0,meteohub,2013-03-24 03:50:00,
2013-03-23 23:55:00,48.9,47.3,29.87,NE,44,0.0,2.0,94,0.00,,,0.35,0.0,meteohub,2013-03-24 03:55:00,